Time;durP1;ratioP1;P1;durP2;ratioP2;P2;SDS_P1;SDS_P2;PMS_P1;PMS_P2;Temp;Humidity;BMP_temperature;BMP_pressure;BME280_temperature;BME280_humidity;BME280_pressure;Samples;Min_cycle;Max_cycle;Signal;HPM_P1;HPM_P2
2023/09/29 00:00:18;;;;;;;5.87;3.45;;;;;;;19.69;49.84;100154.88;4388318;32;33774;-78
2023/09/29 00:02:47;;;;;;;3.60;2.37;;;;;;;19.66;49.73;100157.06;4388472;32;33760;-76
2023/09/29 00:05:17;;;;;;;6.03;3.58;;;;;;;19.77;49.33;100152.22;4388142;32;32454;-80
2023/09/29 00:07:47;;;;;;;9.90;4.15;;;;;;;19.76;49.27;100152.34;4389617;32;34500;-81
2023/09/29 00:10:16;;;;;;;3.90;2.33;;;;;;;19.66;49.52;100152.50;4388193;32;33969;-81
2023/09/29 00:12:45;;;;;;;6.30;2.80;;;;;;;19.81;49.00;100146.41;4387579;32;35024;-83
2023/09/29 00:15:13;;;;;;;8.00;3.92;;;;;;;19.71;49.29;100154.69;4388587;32;33286;-81
2023/09/29 00:17:40;;;;;;;5.78;3.28;;;;;;;19.72;49.10;100149.13;4373934;32;33953;-79
2023/09/29 00:20:26;;;;;;;7.55;2.87;;;;;;;19.76;48.97;100152.34;4389304;32;33899;-78
2023/09/29 00:22:56;;;;;;;6.37;3.08;;;;;;;19.63;49.26;100150.06;4386405;32;34571;-78
2023/09/29 00:25:23;;;;;;;3.53;2.37;;;;;;;19.59;49.41;100146.00;4387443;32;32147;-79
2023/09/29 00:27:52;;;;;;;3.72;2.72;;;;;;;19.61;49.32;100149.37;4386855;32;34805;-79
2023/09/29 00:30:20;;;;;;;5.93;3.72;;;;;;;19.47;49.57;100148.13;4386854;32;34006;-79
2023/09/29 00:32:52;;;;;;;6.93;2.90;;;;;;;19.31;49.94;100148.06;4387989;32;33729;-80
2023/09/29 00:35:24;;;;;;;4.30;2.97;;;;;;;19.27;50.15;100152.09;4385660;32;33260;-78
2023/09/29 00:38:00;;;;;;;6.82;2.95;;;;;;;19.23;50.29;100146.16;4389451;32;34938;-78
2023/09/29 00:40:28;;;;;;;18.80;3.97;;;;;;;19.39;49.91;100150.81;4388374;32;34834;-78
2023/09/29 00:42:59;;;;;;;5.12;2.58;;;;;;;19.38;50.00;100143.66;4388329;32;34803;-78
2023/09/29 00:45:28;;;;;;;8.50;4.30;;;;;;;19.45;49.82;100139.28;4384992;32;31958;-78
2023/09/29 00:48:06;;;;;;;5.57;2.95;;;;;;;19.54;49.50;100134.75;4371933;32;33865;-78
2023/09/29 00:50:37;;;;;;;9.52;3.97;;;;;;;19.54;49.48;100132.03;4390814;32;35349;-78
2023/09/29 00:53:11;;;;;;;5.35;3.80;;;;;;;19.53;49.46;100138.50;4372593;32;33704;-77
2023/09/29 00:55:44;;;;;;;7.20;3.65;;;;;;;19.57;49.43;100137.16;4384166;32;33535;-78
2023/09/29 00:58:15;;;;;;;6.15;3.15;;;;;;;19.49;49.53;100132.53;4354626;32;33818;-79
2023/09/29 01:00:43;;;;;;;3.62;2.33;;;;;;;19.27;50.03;100139.38;4359071;32;32626;-78
2023/09/29 01:03:14;;;;;;;5.75;3.60;;;;;;;19.36;49.62;100133.97;4369936;32;33859;-78
2023/09/29 01:05:48;;;;;;;3.60;2.10;;;;;;;19.34;49.62;100131.44;4363919;32;33489;-78
2023/09/29 01:08:19;;;;;;;3.85;2.25;;;;;;;19.38;49.34;100138.25;4369929;32;35081;-78
2023/09/29 01:10:48;;;;;;;7.32;3.05;;;;;;;19.39;49.29;100134.53;4362778;32;33798;-78
2023/09/29 01:13:16;;;;;;;3.85;2.28;;;;;;;19.45;49.18;100138.44;4366563;32;33558;-77
2023/09/29 01:15:44;;;;;;;5.20;2.95;;;;;;;19.45;49.27;100141.16;4359973;32;33061;-78
2023/09/29 01:18:16;;;;;;;5.22;3.12;;;;;;;19.42;49.44;100142.34;4365614;32;33698;-77
2023/09/29 01:20:44;;;;;;;7.57;4.00;;;;;;;19.40;49.56;100132.66;4360102;32;33781;-76
2023/09/29 01:23:12;;;;;;;9.82;3.03;;;;;;;19.45;49.40;100133.00;4371880;32;34184;-75
2023/09/29 01:25:40;;;;;;;5.20;3.33;;;;;;;19.47;49.16;100137.28;4361588;32;33620;-75
2023/09/29 01:28:08;;;;;;;9.48;4.40;;;;;;;19.44;49.44;100132.16;4364427;32;33730;-75
2023/09/29 01:30:37;;;;;;;5.18;2.45;;;;;;;19.49;49.60;100134.41;4386995;32;35428;-76
2023/09/29 01:33:05;;;;;;;6.03;3.53;;;;;;;19.52;49.59;100128.66;4389881;32;33948;-75
2023/09/29 01:35:32;;;;;;;4.25;2.70;;;;;;;19.43;49.45;100135.91;4387499;32;33678;-75
2023/09/29 01:38:01;;;;;;;13.02;6.65;;;;;;;19.46;49.25;100127.44;4389657;32;32673;-75
2023/09/29 01:40:29;;;;;;;4.93;2.37;;;;;;;19.34;49.46;100136.03;4389159;32;34039;-76
2023/09/29 01:42:57;;;;;;;4.55;2.25;;;;;;;19.38;49.63;100134.69;4389637;32;34926;-75
2023/09/29 01:45:26;;;;;;;5.00;3.40;;;;;;;19.44;49.25;100136.75;4386880;32;33384;-79
2023/09/29 01:47:54;;;;;;;4.87;2.45;;;;;;;19.41;49.33;100132.50;4387665;32;32852;-78
2023/09/29 01:50:23;;;;;;;4.40;2.45;;;;;;;19.42;49.31;100136.03;4379807;32;34257;-78
2023/09/29 01:52:51;;;;;;;9.77;6.62;;;;;;;19.41;49.26;100132.50;4395974;32;35935;-78
2023/09/29 01:55:20;;;;;;;8.63;6.40;;;;;;;19.18;49.89;100132.19;4386929;32;34408;-77
2023/09/29 01:57:50;;;;;;;2.92;1.90;;;;;;;19.24;49.73;100136.16;4390347;32;33972;-75
2023/09/29 02:00:24;;;;;;;8.15;5.12;;;;;;;19.24;49.85;100134.28;4385816;32;34695;-75
2023/09/29 02:02:54;;;;;;;9.45;6.37;;;;;;;19.21;49.98;100131.03;4389224;32;35548;-75
2023/09/29 02:05:23;;;;;;;4.65;2.12;;;;;;;19.15;50.16;100131.69;4388748;32;33485;-75
2023/09/29 02:07:52;;;;;;;4.65;2.53;;;;;;;19.17;50.03;100126.94;4389975;32;33639;-75
2023/09/29 02:10:21;;;;;;;6.15;2.87;;;;;;;19.23;49.83;100135.28;4376496;32;33809;-75
2023/09/29 02:12:56;;;;;;;7.07;3.83;;;;;;;19.28;49.80;100129.38;4391095;32;33892;-75
2023/09/29 02:15:26;;;;;;;6.15;2.85;;;;;;;19.27;49.63;100127.69;4386367;32;33669;-75
2023/09/29 02:17:54;;;;;;;7.35;3.53;;;;;;;19.24;49.66;100133.44;4392018;32;34731;-75
2023/09/29 02:20:28;;;;;;;5.40;3.03;;;;;;;19.26;49.51;100129.56;4391334;32;34899;-75
2023/09/29 02:23:00;;;;;;;7.55;5.10;;;;;;;19.21;49.58;100131.87;4388746;32;34086;-75
2023/09/29 02:25:29;;;;;;;21.70;3.20;;;;;;;19.19;49.62;100131.19;4394817;32;34649;-75
2023/09/29 02:27:59;;;;;;;8.88;2.37;;;;;;;19.06;49.73;100125.34;4388102;32;34936;-75
2023/09/29 02:30:28;;;;;;;7.87;3.60;;;;;;;19.09;49.60;100134.00;4388774;32;33450;-74
2023/09/29 02:32:56;;;;;;;7.00;3.12;;;;;;;19.11;49.53;100131.16;4390566;32;34706;-75
2023/09/29 02:35:25;;;;;;;7.22;3.55;;;;;;;19.02;49.64;100124.81;4387579;32;33217;-75
2023/09/29 02:37:52;;;;;;;5.87;3.33;;;;;;;19.03;49.63;100129.22;4389516;32;33706;-74
2023/09/29 02:40:22;;;;;;;5.20;4.07;;;;;;;18.97;49.76;100126.28;4389280;32;35263;-75
2023/09/29 02:42:50;;;;;;;6.32;2.72;;;;;;;18.89;50.07;100126.25;4390175;32;34113;-75
2023/09/29 02:45:19;;;;;;;6.55;3.33;;;;;;;18.88;49.96;100127.28;4388702;32;33282;-75
2023/09/29 02:47:47;;;;;;;5.37;3.05;;;;;;;18.92;50.04;100124.06;4389819;32;33799;-75
2023/09/29 02:50:18;;;;;;;6.20;3.45;;;;;;;18.90;50.13;100130.66;4389215;32;33675;-75
2023/09/29 02:52:46;;;;;;;4.28;2.58;;;;;;;18.96;50.08;100130.88;4390316;32;34901;-78
2023/09/29 02:55:14;;;;;;;5.22;2.75;;;;;;;18.99;50.15;100125.13;4389025;32;33288;-81
2023/09/29 02:57:44;;;;;;;10.13;2.67;;;;;;;19.02;50.17;100126.69;4387556;32;33777;-79
2023/09/29 03:00:18;;;;;;;7.05;2.85;;;;;;;19.05;49.93;100129.06;4388059;32;35220;-78
2023/09/29 03:02:48;;;;;;;4.97;2.08;;;;;;;19.07;49.89;100127.06;4388957;32;34431;-78
2023/09/29 03:05:16;;;;;;;3.20;1.92;;;;;;;19.03;49.83;100121.09;4389129;32;33399;-81
2023/09/29 03:07:44;;;;;;;4.47;3.33;;;;;;;19.05;49.47;100126.38;4373896;32;33891;-82
2023/09/29 03:10:14;;;;;;;2.65;1.83;;;;;;;18.98;49.69;100119.88;4389267;32;33037;-83
2023/09/29 03:12:43;;;;;;;6.32;2.90;;;;;;;18.92;49.66;100121.38;4388831;32;33922;-82
2023/09/29 03:15:15;;;;;;;4.03;2.53;;;;;;;18.90;49.87;100119.81;4375936;32;33271;-82
2023/09/29 03:17:44;;;;;;;8.80;3.87;;;;;;;18.88;49.94;100122.69;4389277;32;33683;-82
2023/09/29 03:20:14;;;;;;;3.97;2.10;;;;;;;18.90;49.90;100125.25;4388678;32;35002;-82
2023/09/29 03:22:44;;;;;;;2.87;2.58;;;;;;;18.77;50.41;100121.06;4389482;32;33558;-81
2023/09/29 03:25:16;;;;;;;7.62;4.53;;;;;;;18.80;50.18;100115.34;4389820;32;33275;-81
2023/09/29 03:27:45;;;;;;;9.50;6.78;;;;;;;18.65;50.59;100126.88;4387871;32;33874;-81
2023/09/29 03:30:13;;;;;;;11.38;2.97;;;;;;;18.40;51.33;100118.56;4388502;32;33977;-80
2023/09/29 03:32:42;;;;;;;10.20;6.93;;;;;;;18.58;51.05;100124.78;4389867;32;33823;-81
2023/09/29 03:35:10;;;;;;;4.10;2.90;;;;;;;18.56;50.89;100121.41;4387237;32;33926;-81
2023/09/29 03:37:39;;;;;;;4.57;2.55;;;;;;;18.68;50.64;100124.69;4374435;32;33629;-81
2023/09/29 03:40:09;;;;;;;5.28;2.65;;;;;;;18.70;50.78;100128.13;4386508;32;33954;-79
2023/09/29 03:42:38;;;;;;;10.43;3.55;;;;;;;18.72;50.41;100126.16;4388603;32;33958;-79
2023/09/29 03:45:06;;;;;;;7.45;2.10;;;;;;;18.77;50.49;100131.94;4388785;32;34371;-79
2023/09/29 03:47:34;;;;;;;7.12;3.12;;;;;;;18.77;50.24;100128.37;4388132;32;34851;-79
2023/09/29 03:50:07;;;;;;;11.23;6.53;;;;;;;18.77;50.04;100128.37;4388283;32;33945;-78
2023/09/29 03:52:35;;;;;;;6.45;4.18;;;;;;;18.70;50.22;100132.69;4389980;32;33826;-78
2023/09/29 03:55:03;;;;;;;6.00;3.20;;;;;;;18.67;50.40;100130.28;4383815;32;34647;-75
2023/09/29 03:57:32;;;;;;;3.58;2.55;;;;;;;18.69;50.40;100133.72;4386445;32;33731;-74
2023/09/29 03:59:59;;;;;;;3.97;2.75;;;;;;;18.63;50.26;100133.31;4388089;32;33854;-74
2023/09/29 04:02:28;;;;;;;7.28;3.33;;;;;;;18.68;50.55;100134.69;4384708;32;33510;-73
2023/09/29 04:04:56;;;;;;;8.07;3.83;;;;;;;18.73;50.27;100132.41;4388780;32;34608;-73
2023/09/29 04:07:26;;;;;;;4.93;3.12;;;;;;;18.72;50.72;100139.69;4388787;32;33724;-73
2023/09/29 04:09:53;;;;;;;7.55;3.78;;;;;;;18.69;50.73;100129.13;4388599;32;32640;-73
2023/09/29 04:12:21;;;;;;;5.18;2.67;;;;;;;18.75;50.55;100131.25;4389770;32;35393;-75
2023/09/29 04:14:52;;;;;;;4.30;2.80;;;;;;;18.78;49.95;100135.47;4387436;32;33540;-72
2023/09/29 04:17:20;;;;;;;6.15;3.03;;;;;;;18.66;50.32;100142.16;4388269;32;34086;-72
2023/09/29 04:19:48;;;;;;;6.45;3.58;;;;;;;18.56;50.60;100139.53;4389489;32;34195;-72
2023/09/29 04:22:16;;;;;;;7.50;3.45;;;;;;;18.51;50.76;100137.28;4389366;32;33666;-72
2023/09/29 04:24:43;;;;;;;4.95;2.47;;;;;;;18.44;50.87;100138.91;4388062;32;34787;-75
2023/09/29 04:27:11;;;;;;;7.72;3.60;;;;;;;18.33;51.22;100137.31;4388686;32;32241;-74
2023/09/29 04:29:39;;;;;;;5.85;3.40;;;;;;;18.41;50.95;100139.22;4390341;32;33981;-74
2023/09/29 04:32:06;;;;;;;4.57;2.53;;;;;;;18.20;51.50;100146.81;4387366;32;33638;-74
2023/09/29 04:34:34;;;;;;;5.78;3.80;;;;;;;17.77;52.79;100142.97;4380085;32;33122;-76
2023/09/29 04:37:02;;;;;;;7.45;3.70;;;;;;;17.89;52.52;100144.47;4384757;32;33963;-73
2023/09/29 04:39:30;;;;;;;8.43;3.15;;;;;;;17.98;52.30;100146.25;4388711;32;35076;-72
2023/09/29 04:41:58;;;;;;;8.63;3.22;;;;;;;17.85;52.74;100152.03;4389626;32;33878;-73
2023/09/29 04:44:25;;;;;;;4.82;2.92;;;;;;;18.04;52.27;100148.38;4389129;32;33458;-73
2023/09/29 04:46:53;;;;;;;10.35;7.80;;;;;;;18.17;52.14;100148.00;4385451;32;34888;-73
2023/09/29 04:49:20;;;;;;;9.00;3.70;;;;;;;18.07;51.93;100152.59;4386584;32;33562;-73
2023/09/29 04:51:48;;;;;;;9.63;3.03;;;;;;;18.04;51.95;100158.31;4388997;32;33929;-73
2023/09/29 04:54:15;;;;;;;6.30;3.15;;;;;;;18.14;51.66;100154.56;4387142;32;33221;-73
2023/09/29 04:56:45;;;;;;;5.62;3.70;;;;;;;18.02;51.98;100155.78;4385784;32;33846;-73
2023/09/29 04:59:12;;;;;;;11.38;3.75;;;;;;;18.04;51.94;100158.31;4389307;32;35207;-73
2023/09/29 05:01:40;;;;;;;6.85;4.53;;;;;;;18.05;51.95;100154.63;4382310;32;35040;-73
2023/09/29 05:04:08;;;;;;;7.53;4.50;;;;;;;18.07;51.88;100160.72;4384195;32;33384;-72
2023/09/29 05:06:36;;;;;;;10.63;4.53;;;;;;;18.05;52.04;100155.47;4387057;32;34801;-71
2023/09/29 05:09:04;;;;;;;12.55;7.50;;;;;;;17.91;52.49;100158.69;4387602;32;33977;-74
2023/09/29 05:11:32;;;;;;;13.07;2.95;;;;;;;18.05;52.04;100165.47;4388601;32;34151;-73
2023/09/29 05:13:59;;;;;;;5.03;2.67;;;;;;;18.05;52.14;100162.75;4388279;32;33786;-73
2023/09/29 05:16:27;;;;;;;8.25;3.30;;;;;;;18.13;52.16;100171.78;4386007;32;34980;-74
2023/09/29 05:18:55;;;;;;;8.07;3.03;;;;;;;18.20;52.24;100155.78;4387655;32;34942;-75
2023/09/29 05:21:24;;;;;;;5.93;3.03;;;;;;;18.25;52.39;100158.03;4387148;32;33108;-75
2023/09/29 05:23:52;;;;;;;6.30;3.37;;;;;;;18.34;52.35;100159.84;4387509;32;33856;-75
2023/09/29 05:26:20;;;;;;;5.55;3.62;;;;;;;18.40;51.98;100161.94;4386349;32;34013;-74
2023/09/29 05:28:49;;;;;;;13.15;4.20;;;;;;;18.48;51.77;100161.97;4390523;32;33808;-73
2023/09/29 05:31:17;;;;;;;8.05;3.37;;;;;;;18.58;51.64;100161.91;4373165;32;33858;-73
2023/09/29 05:33:45;;;;;;;17.80;3.60;;;;;;;18.58;51.74;100161.91;4385680;32;33749;-74
2023/09/29 05:36:12;;;;;;;6.47;3.60;;;;;;;18.71;51.62;100165.06;4386638;32;31986;-75
2023/09/29 05:38:40;;;;;;;10.15;3.55;;;;;;;18.72;51.56;100166.81;4390939;32;35440;-77
2023/09/29 05:41:08;;;;;;;13.25;3.75;;;;;;;18.83;51.98;100171.12;4388202;32;35132;-74
2023/09/29 05:43:35;;;;;;;10.57;4.07;;;;;;;19.00;51.58;100174.81;4390923;32;33193;-75
2023/09/29 05:46:03;;;;;;;11.93;3.12;;;;;;;19.15;51.35;100175.09;4377185;32;34069;-74
2023/09/29 05:48:31;;;;;;;11.00;7.72;;;;;;;19.30;51.19;100176.22;4394302;32;37078;-73
2023/09/29 05:51:00;;;;;;;4.12;2.75;;;;;;;19.37;51.07;100171.84;4392158;32;33734;-73
2023/09/29 05:53:28;;;;;;;6.75;3.92;;;;;;;19.51;50.72;100175.81;4389462;32;33265;-73
2023/09/29 05:55:55;;;;;;;6.30;3.40;;;;;;;19.63;50.53;100173.66;4388482;32;34761;-74
2023/09/29 05:58:23;;;;;;;12.98;4.20;;;;;;;19.83;50.37;100174.28;4390055;32;33709;-75
2023/09/29 06:00:51;;;;;;;7.10;3.00;;;;;;;20.01;50.03;100175.03;4384029;32;33690;-75
2023/09/29 06:03:19;;;;;;;7.20;3.62;;;;;;;20.18;49.76;100175.91;4388142;32;33548;-75
2023/09/29 06:05:47;;;;;;;6.30;3.47;;;;;;;20.39;49.71;100175.47;4387170;32;32565;-76
2023/09/29 06:08:14;;;;;;;6.10;4.28;;;;;;;20.80;48.49;100178.22;4388873;32;33726;-75
2023/09/29 06:10:42;;;;;;;12.25;5.22;;;;;;;21.03;47.44;100173.81;4386860;32;34799;-75
2023/09/29 06:13:10;;;;;;;9.32;4.68;;;;;;;21.24;47.40;100175.13;4377864;32;33638;-76
2023/09/29 06:15:38;;;;;;;13.62;4.10;;;;;;;21.36;47.05;100177.34;4387511;32;33723;-76
2023/09/29 06:18:06;;;;;;;11.48;5.43;;;;;;;21.50;47.58;100185.81;4382876;32;33881;-75
2023/09/29 06:20:34;;;;;;;13.30;7.28;;;;;;;21.52;48.34;100187.34;4387668;32;33876;-76
2023/09/29 06:23:02;;;;;;;5.90;3.10;;;;;;;21.58;48.74;100191.25;4387965;32;33550;-75
2023/09/29 06:25:33;;;;;;;16.83;4.85;;;;;;;21.61;47.80;100188.16;4389873;32;34874;-76
2023/09/29 06:28:00;;;;;;;8.77;4.82;;;;;;;21.73;46.92;100185.87;4386213;32;33746;-75
2023/09/29 06:30:28;;;;;;;10.73;7.22;;;;;;;21.56;47.00;100191.41;4386233;32;32549;-76
2023/09/29 06:32:56;;;;;;;6.62;4.03;;;;;;;21.22;47.34;100188.03;4390131;32;34049;-76
2023/09/29 06:35:24;;;;;;;12.68;4.85;;;;;;;21.66;47.40;100193.06;4389353;32;33665;-76
2023/09/29 06:37:52;;;;;;;6.12;3.62;;;;;;;21.86;46.91;100197.94;4389228;32;33636;-76
2023/09/29 06:40:19;;;;;;;9.90;4.97;;;;;;;21.98;46.63;100194.81;4396373;32;34651;-76
2023/09/29 06:42:47;;;;;;;10.02;4.53;;;;;;;22.09;46.25;100192.56;4389331;32;33723;-75
2023/09/29 06:45:14;;;;;;;11.65;4.82;;;;;;;22.29;45.93;100194.84;4390151;32;35038;-75
2023/09/29 06:47:42;;;;;;;7.55;5.10;;;;;;;22.56;45.24;100191.59;4390114;32;33790;-75
2023/09/29 06:50:10;;;;;;;6.82;3.83;;;;;;;22.72;45.12;100198.81;4387872;32;34704;-76
2023/09/29 06:52:38;;;;;;;10.52;4.82;;;;;;;22.71;44.76;100196.28;4388163;32;33516;-75
2023/09/29 06:55:07;;;;;;;6.57;4.03;;;;;;;22.58;45.27;100198.75;4383663;32;33862;-75
2023/09/29 06:57:35;;;;;;;10.32;5.03;;;;;;;22.48;44.98;100199.00;4390285;32;33956;-75
2023/09/29 07:00:06;;;;;;;8.68;4.85;;;;;;;22.61;44.68;100203.84;4386314;32;35036;-76
2023/09/29 07:02:34;;;;;;;10.52;4.78;;;;;;;22.54;45.23;100207.31;4385512;32;100299;-76
2023/09/29 07:05:02;;;;;;;6.65;3.80;;;;;;;22.62;44.71;100202.81;4389987;32;33591;-76
2023/09/29 07:07:31;;;;;;;7.82;4.05;;;;;;;22.75;44.77;100213.97;4389396;32;35000;-75
2023/09/29 07:09:59;;;;;;;7.57;3.62;;;;;;;23.07;44.33;100212.03;4389186;32;33853;-75
2023/09/29 07:12:27;;;;;;;9.27;4.65;;;;;;;23.00;44.93;100211.94;4387882;32;33536;-77
2023/09/29 07:14:54;;;;;;;9.43;4.65;;;;;;;22.80;44.44;100222.47;4388011;32;33706;-77
2023/09/29 07:17:22;;;;;;;9.48;4.50;;;;;;;22.59;44.37;100225.84;4388346;32;33788;-77
2023/09/29 07:19:49;;;;;;;11.68;4.72;;;;;;;22.70;43.99;100221.88;4390855;32;34794;-77
2023/09/29 07:22:17;;;;;;;8.48;5.07;;;;;;;22.74;43.74;100220.47;4387947;32;35213;-76
2023/09/29 07:24:46;;;;;;;13.05;5.07;;;;;;;22.74;44.37;100220.47;4389105;32;33274;-77
2023/09/29 07:27:13;;;;;;;8.73;5.25;;;;;;;23.25;43.25;100221.59;4387873;32;33856;-78
2023/09/29 07:29:41;;;;;;;7.93;4.47;;;;;;;23.06;42.61;100221.25;4390219;32;34185;-77
2023/09/29 07:32:10;;;;;;;12.90;5.18;;;;;;;23.29;42.27;100227.53;4391057;32;33481;-77
2023/09/29 07:34:38;;;;;;;9.93;5.20;;;;;;;23.14;42.59;100226.63;4390009;32;33796;-80
2023/09/29 07:37:06;;;;;;;9.60;5.07;;;;;;;23.21;43.26;100224.84;4388900;32;33686;-80
2023/09/29 07:39:33;;;;;;;9.43;5.10;;;;;;;23.10;42.38;100228.88;4386065;32;33851;-79
2023/09/29 07:42:01;;;;;;;8.32;4.57;;;;;;;23.37;41.84;100227.47;4399951;32;33108;-79
2023/09/29 07:44:29;;;;;;;10.77;4.82;;;;;;;23.36;42.08;100227.63;4390527;32;34680;-79
2023/09/29 07:46:56;;;;;;;16.15;4.62;;;;;;;23.15;42.52;100228.34;4389608;32;34764;-79
2023/09/29 07:49:24;;;;;;;9.07;4.68;;;;;;;23.01;43.02;100230.00;4376246;32;34185;-77
2023/09/29 07:51:52;;;;;;;9.65;4.45;;;;;;;23.23;42.99;100225.53;4390750;32;33469;-77
2023/09/29 07:54:20;;;;;;;7.15;5.07;;;;;;;22.92;43.68;100231.94;4389374;32;34703;-78
2023/09/29 07:56:50;;;;;;;9.45;5.32;;;;;;;23.17;43.39;100231.72;4388400;32;34194;-77
2023/09/29 07:59:18;;;;;;;6.53;3.75;;;;;;;23.35;42.42;100231.41;4388103;32;33874;-77
2023/09/29 08:01:49;;;;;;;9.25;4.75;;;;;;;23.47;42.25;100224.47;4386882;32;34414;-78
2023/09/29 08:04:17;;;;;;;16.58;4.95;;;;;;;23.40;42.66;100227.09;4388898;32;34557;-78
2023/09/29 08:06:45;;;;;;;7.93;4.72;;;;;;;23.56;41.51;100225.19;4388271;32;32837;-79
2023/09/29 08:09:13;;;;;;;8.73;4.80;;;;;;;23.80;41.34;100229.59;4386473;32;34235;-78
2023/09/29 08:11:42;;;;;;;7.85;4.07;;;;;;;23.53;41.64;100225.56;4387740;32;33451;-78
2023/09/29 08:14:10;;;;;;;11.20;3.90;;;;;;;23.45;41.84;100231.97;4387730;32;33819;-78
2023/09/29 08:16:37;;;;;;;9.52;3.78;;;;;;;23.66;41.26;100236.72;4386389;32;33820;-78
2023/09/29 08:19:05;;;;;;;7.45;3.60;;;;;;;23.05;43.55;100227.75;4389778;32;34713;-79
2023/09/29 08:21:33;;;;;;;10.73;4.87;;;;;;;23.66;41.55;100231.25;4387332;32;33510;-78
2023/09/29 08:24:02;;;;;;;10.23;4.22;;;;;;;23.96;40.75;100234.84;4386547;32;35053;-78
2023/09/29 08:26:31;;;;;;;14.35;4.60;;;;;;;23.82;41.00;100233.84;4387494;32;33560;-77
2023/09/29 08:29:00;;;;;;;7.32;3.85;;;;;;;22.95;42.21;100233.44;4372941;32;32861;-78
2023/09/29 08:31:27;;;;;;;8.82;4.82;;;;;;;23.63;41.25;100228.91;4388219;32;33548;-79
2023/09/29 08:33:55;;;;;;;12.77;5.18;;;;;;;23.48;41.42;100231.59;4383818;32;33795;-78
2023/09/29 08:36:23;;;;;;;10.70;4.65;;;;;;;23.93;40.98;100232.50;4388906;32;34177;-78
2023/09/29 08:38:50;;;;;;;7.15;3.75;;;;;;;23.61;41.55;100228.22;4387814;32;33721;-79
2023/09/29 08:41:25;;;;;;;7.53;4.47;;;;;;;23.71;41.29;100228.81;4386606;32;34090;-78
2023/09/29 08:43:53;;;;;;;7.10;4.47;;;;;;;24.14;40.49;100228.97;4386387;32;33632;-76
2023/09/29 08:46:36;;;;;;;8.77;4.65;;;;;;;24.34;39.77;100224.59;4369925;32;32612;-75
2023/09/29 08:49:05;;;;;;;8.93;4.68;;;;;;;24.22;40.39;100228.88;4387613;32;35401;-76
2023/09/29 08:51:36;;;;;;;11.38;4.75;;;;;;;24.31;40.65;100229.63;4388055;32;33403;-76
2023/09/29 08:54:04;;;;;;;7.90;3.75;;;;;;;24.47;40.47;100231.31;4390838;32;34244;-76
2023/09/29 08:56:33;;;;;;;13.07;5.25;;;;;;;24.28;40.60;100225.38;4386539;32;35210;-76
2023/09/29 08:59:01;;;;;;;10.00;4.55;;;;;;;23.88;41.10;100233.06;4374474;32;33928;-76
2023/09/29 09:01:30;;;;;;;10.80;5.28;;;;;;;24.21;41.19;100234.53;4389210;32;34132;-75
2023/09/29 09:03:58;;;;;;;12.93;5.57;;;;;;;24.47;39.61;100239.50;4388342;32;33458;-76
2023/09/29 09:06:27;;;;;;;10.07;5.22;;;;;;;24.53;40.57;100239.59;4381496;32;33636;-75
2023/09/29 09:08:56;;;;;;;9.75;5.50;;;;;;;24.59;39.05;100240.69;4381923;32;33845;-78
2023/09/29 09:11:24;;;;;;;7.87;5.05;;;;;;;24.68;39.11;100239.50;4384535;32;33683;-76
2023/09/29 09:13:58;;;;;;;12.32;5.07;;;;;;;24.81;38.58;100239.66;4372314;32;34085;-77
2023/09/29 09:16:27;;;;;;;8.52;4.78;;;;;;;24.81;39.51;100234.16;4382792;32;34193;-82
2023/09/29 09:18:55;;;;;;;15.77;5.85;;;;;;;25.06;38.14;100240.09;4391331;32;32849;-77
2023/09/29 09:21:32;;;;;;;10.35;3.87;;;;;;;24.81;37.77;100236.91;4389621;32;33855;-76
2023/09/29 09:24:00;;;;;;;8.27;4.82;;;;;;;24.83;37.96;100236.72;4382951;32;33468;-75
2023/09/29 09:26:29;;;;;;;14.20;5.75;;;;;;;25.05;37.56;100234.84;4390113;32;33930;-75
2023/09/29 09:29:08;;;;;;;6.20;3.70;;;;;;;25.28;37.54;100237.37;4383525;32;35209;-76
2023/09/29 09:31:47;;;;;;;9.15;4.87;;;;;;;24.98;37.40;100229.31;4389569;32;33479;-76
2023/09/29 09:34:14;;;;;;;8.63;5.68;;;;;;;25.40;38.10;100232.19;4387052;32;33946;-74
2023/09/29 09:36:53;;;;;;;8.95;4.20;;;;;;;25.70;37.59;100233.66;4391376;32;33569;-79
2023/09/29 09:39:24;;;;;;;7.97;5.40;;;;;;;25.72;36.58;100222.50;4390086;32;33980;-78
2023/09/29 09:41:54;;;;;;;11.93;5.65;;;;;;;25.23;38.23;100231.62;4386745;32;33416;-78
2023/09/29 09:44:22;;;;;;;11.20;5.03;;;;;;;25.23;37.22;100217.94;4388399;32;33519;-78
2023/09/29 09:47:03;;;;;;;9.32;5.53;;;;;;;25.53;37.57;100219.44;4358738;32;34866;-78
2023/09/29 09:49:45;;;;;;;9.32;4.12;;;;;;;25.70;37.23;100228.19;4346252;32;35652;-78
2023/09/29 09:52:19;;;;;;;9.15;4.47;;;;;;;25.35;37.83;100218.25;4349172;32;32859;-79
2023/09/29 09:54:54;;;;;;;9.07;4.28;;;;;;;25.63;37.25;100218.22;4347594;32;34542;-78
2023/09/29 09:57:33;;;;;;;17.08;4.82;;;;;;;25.53;36.93;100215.84;4339350;32;35054;-79
2023/09/29 10:00:10;;;;;;;11.12;5.93;;;;;;;25.81;37.34;100217.72;4349018;32;33883;-78
2023/09/29 10:02:43;;;;;;;11.55;6.75;;;;;;;25.92;36.66;100211.69;4348827;32;33937;-79
2023/09/29 10:05:18;;;;;;;14.25;5.35;;;;;;;25.91;37.20;100210.84;4339676;32;34993;-78
2023/09/29 10:07:46;;;;;;;15.63;6.25;;;;;;;25.91;37.02;100212.75;4348517;32;33653;-78
2023/09/29 10:10:24;;;;;;;13.88;5.03;;;;;;;26.08;36.37;100214.06;4349494;32;33394;-78
2023/09/29 10:12:54;;;;;;;14.87;5.03;;;;;;;26.29;36.01;100209.50;4347486;32;33424;-79
2023/09/29 10:15:22;;;;;;;11.85;4.85;;;;;;;25.85;36.63;100199.84;4349286;32;34113;-79
2023/09/29 10:17:50;;;;;;;10.98;6.40;;;;;;;25.87;35.99;100205.94;4348917;32;32558;-78
2023/09/29 10:20:22;;;;;;;8.48;4.45;;;;;;;26.33;36.16;100208.06;4348325;32;34127;-76
2023/09/29 10:22:54;;;;;;;14.07;5.78;;;;;;;26.49;35.38;100204.97;4348649;32;33158;-76
2023/09/29 10:25:23;;;;;;;8.23;4.75;;;;;;;26.32;36.19;100204.44;4347879;32;34924;-76
2023/09/29 10:28:12;;;;;;;19.58;7.07;;;;;;;26.37;36.15;100195.59;4349606;32;35233;-77
2023/09/29 10:30:40;;;;;;;9.20;5.82;;;;;;;26.20;36.48;100198.72;4343838;32;33940;-81
2023/09/29 10:33:13;;;;;;;8.77;4.75;;;;;;;26.42;36.38;100198.56;4345245;32;34787;-78
2023/09/29 10:35:44;;;;;;;10.50;5.35;;;;;;;26.56;36.26;100199.47;4344430;32;33851;-78
2023/09/29 10:38:25;;;;;;;16.85;6.10;;;;;;;26.25;36.64;100203.56;4315323;33;33952;-76
2023/09/29 10:40:53;;;;;;;11.57;6.03;;;;;;;26.32;35.78;100195.38;4317010;33;33942;-75
2023/09/29 10:43:23;;;;;;;11.10;6.87;;;;;;;25.78;36.70;100197.03;4316628;33;32183;-76
2023/09/29 10:45:51;;;;;;;13.68;6.57;;;;;;;26.33;35.63;100188.84;4316602;33;32168;-77
2023/09/29 10:48:23;;;;;;;16.05;6.65;;;;;;;26.49;35.34;100188.50;4317948;33;33575;-77
2023/09/29 10:50:51;;;;;;;10.75;5.03;;;;;;;26.08;36.76;100192.13;4319944;33;33739;-76
2023/09/29 10:53:22;;;;;;;9.50;4.25;;;;;;;26.59;35.50;100179.84;4319950;33;34914;-76
2023/09/29 10:55:53;;;;;;;16.48;4.90;;;;;;;26.66;35.00;100178.78;4316747;33;33261;-76
2023/09/29 10:58:21;;;;;;;11.00;4.50;;;;;;;26.86;34.60;100178.81;4319453;33;33739;-77
2023/09/29 11:00:52;;;;;;;6.50;4.03;;;;;;;27.02;34.45;100174.81;4316495;33;34894;-77
2023/09/29 11:03:27;;;;;;;9.98;6.20;;;;;;;27.14;33.99;100170.41;4320164;33;33624;-76
2023/09/29 11:05:55;;;;;;;;;;;;;;;26.89;34.88;100161.91;4317241;33;33508;-76
2023/09/29 11:08:34;;;;;;;10.93;5.72;;;;;;;27.08;34.98;100160.22;4327615;32;35834;-77
2023/09/29 11:11:04;;;;;;;11.18;4.80;;;;;;;27.00;34.58;100160.44;4357766;32;33907;-76
2023/09/29 11:13:33;;;;;;;11.73;4.95;;;;;;;27.28;34.21;100151.97;4377086;32;33286;-75
2023/09/29 11:16:00;;;;;;;11.68;6.93;;;;;;;27.04;34.84;100158.97;4377156;32;35556;-74
2023/09/29 11:18:30;;;;;;;10.45;5.78;;;;;;;27.23;34.89;100148.19;4374935;32;33880;-74
2023/09/29 11:20:59;;;;;;;8.32;4.87;;;;;;;27.24;35.57;100150.72;4373230;32;32477;-75
2023/09/29 11:23:45;;;;;;;12.35;5.12;;;;;;;27.10;34.40;100149.88;4361715;32;32870;-75
2023/09/29 11:26:15;;;;;;;9.80;5.45;;;;;;;27.17;34.32;100148.00;4348125;32;32488;-74
2023/09/29 11:28:44;;;;;;;9.77;4.75;;;;;;;26.98;33.56;100145.22;4361562;32;33432;-74
2023/09/29 11:31:12;;;;;;;10.02;6.07;;;;;;;27.42;32.86;100141.81;4361501;32;33936;-74